Time;durP1;ratioP1;P1;durP2;ratioP2;P2;SDS_P1;SDS_P2;PMS_P1;PMS_P2;Temp;Humidity;BMP_temperature;BMP_pressure;BME280_temperature;BME280_humidity;BME280_pressure;Samples;Min_cycle;Max_cycle;Signal;HPM_P1;HPM_P2
2023/12/17 00:02:03;;;;;;;13.50;9.00;;;;;;;4.73;98.70;101277.85;218570;1256;140442;-68
2023/12/17 00:07:08;;;;;;;17.60;8.80;;;;;;;4.73;98.78;101261.11;218541;1259;139955;-68
2023/12/17 00:12:13;;;;;;;11.40;8.40;;;;;;;4.75;98.80;101238.16;219347;1256;139664;-68
2023/12/17 00:17:18;;;;;;;20.30;9.60;;;;;;;4.75;98.87;101236.64;218307;1256;141901;-68
2023/12/17 00:22:22;;;;;;;17.00;10.30;;;;;;;4.76;98.68;101225.08;218983;1257;139523;-68
2023/12/17 00:27:27;;;;;;;18.10;9.00;;;;;;;4.77;98.60;101218.81;218963;1257;139865;-69
2023/12/17 00:32:31;;;;;;;15.40;9.10;;;;;;;4.78;99.01;101216.22;218098;1256;140428;-68
2023/12/17 00:37:36;;;;;;;16.40;10.20;;;;;;;4.80;99.07;101214.48;218948;1256;140433;-67
2023/12/17 00:42:43;;;;;;;22.30;9.60;;;;;;;4.83;98.85;101217.98;218984;1256;141394;-67
2023/12/17 00:47:47;;;;;;;14.90;8.60;;;;;;;4.85;99.18;101219.73;218510;1256;139715;-68
2023/12/17 00:52:53;;;;;;;18.30;9.20;;;;;;;4.86;98.84;101227.05;220441;1256;141210;-68
2023/12/17 00:57:57;;;;;;;18.50;10.30;;;;;;;4.89;99.06;101222.28;218313;1256;141633;-67
2023/12/17 01:03:02;;;;;;;11.80;8.30;;;;;;;4.92;99.14;101232.68;219676;1256;140451;-68
2023/12/17 01:08:07;;;;;;;18.00;9.70;;;;;;;4.96;99.16;101219.77;220398;1256;140190;-68
2023/12/17 01:13:12;;;;;;;19.40;9.40;;;;;;;4.99;98.99;101226.86;218220;1256;140120;-67
2023/12/17 01:18:16;;;;;;;15.70;9.50;;;;;;;5.02;98.96;101224.16;218594;1256;139590;-68
2023/12/17 01:23:21;;;;;;;20.10;9.20;;;;;;;5.03;98.71;101224.10;219903;1256;139525;-68
2023/12/17 01:28:25;;;;;;;14.10;9.90;;;;;;;5.03;99.04;101227.40;218057;1257;140360;-68
2023/12/17 01:33:30;;;;;;;26.30;11.30;;;;;;;5.06;99.15;101225.39;218570;1257;140331;-68
2023/12/17 01:38:35;;;;;;;16.50;9.90;;;;;;;5.08;99.05;101223.58;218745;1256;139827;-67
2023/12/17 01:43:41;;;;;;;14.20;11.00;;;;;;;5.11;99.16;101215.89;218071;1257;142099;-68
2023/12/17 01:48:46;;;;;;;16.20;10.60;;;;;;;5.14;98.93;101216.33;217874;1256;140033;-69
2023/12/17 01:53:51;;;;;;;15.00;10.30;;;;;;;5.17;99.14;101230.21;217821;1257;231285;-67
2023/12/17 01:58:56;;;;;;;17.00;10.90;;;;;;;5.19;99.15;101244.98;218257;1256;139947;-68
2023/12/17 02:04:01;;;;;;;17.30;9.10;;;;;;;5.21;99.43;101241.02;217978;1256;140853;-69
2023/12/17 02:09:05;;;;;;;21.10;9.80;;;;;;;5.24;99.17;101250.25;218338;1256;140673;-68
2023/12/17 02:14:10;;;;;;;17.40;9.50;;;;;;;5.28;99.21;101245.84;217617;1257;140888;-67
2023/12/17 02:19:15;;;;;;;31.20;14.10;;;;;;;5.30;99.29;101238.02;217932;1256;139641;-67
2023/12/17 02:24:19;;;;;;;18.90;11.80;;;;;;;5.32;99.15;101242.31;217812;1257;139744;-67
2023/12/17 02:29:23;;;;;;;16.60;10.30;;;;;;;5.33;98.83;101236.23;218546;1259;140373;-68
2023/12/17 02:34:26;;;;;;;19.50;10.70;;;;;;;5.35;98.62;101240.92;217684;1257;140727;-66
2023/12/17 02:39:30;;;;;;;17.70;11.00;;;;;;;5.39;99.16;101247.55;219879;1256;140004;-67
2023/12/17 02:44:35;;;;;;;31.40;10.60;;;;;;;5.42;99.05;101246.23;218986;1257;140084;-68
2023/12/17 02:49:41;;;;;;;10.10;9.00;;;;;;;5.46;98.74;101233.84;217842;1257;140929;-66
2023/12/17 02:54:45;;;;;;;14.70;8.90;;;;;;;5.47;98.79;101220.52;220497;1255;141602;-67
2023/12/17 03:47:47;;;;;;;17.60;10.40;;;;;;;5.75;98.00;101201.84;214957;1297;635823;-67
2023/12/17 03:52:52;;;;;;;19.50;10.70;;;;;;;5.74;98.07;101202.88;216512;1269;140031;-66
2023/12/17 03:57:57;;;;;;;16.20;12.30;;;;;;;5.73;97.92;101197.45;215927;1266;580776;-67
2023/12/17 04:03:01;;;;;;;20.80;14.70;;;;;;;5.73;98.08;101196.42;216840;1266;230408;-66
2023/12/17 04:08:07;;;;;;;23.20;11.90;;;;;;;5.73;98.32;101207.34;217507;1266;139215;-66
2023/12/17 04:13:12;;;;;;;18.20;10.30;;;;;;;5.74;98.48;101210.64;218305;1259;140081;-67
2023/12/17 04:18:17;;;;;;;18.70;11.80;;;;;;;5.77;98.25;101200.27;218498;1259;139403;-70
2023/12/17 04:23:21;;;;;;;19.50;11.20;;;;;;;5.80;98.39;101202.73;218111;1259;140978;-68
2023/12/17 04:28:25;;;;;;;17.80;10.90;;;;;;;5.80;97.94;101212.63;219290;1260;140026;-70
2023/12/17 04:33:31;;;;;;;14.20;8.30;;;;;;;5.82;98.62;101224.29;218202;1259;139368;-68
2023/12/17 04:38:37;;;;;;;14.20;11.10;;;;;;;5.84;98.44;101216.60;218171;1260;139018;-68
2023/12/17 04:43:42;;;;;;;11.30;8.70;;;;;;;5.86;98.37;101213.06;219854;1259;140920;-68
2023/12/17 04:48:47;;;;;;;16.50;10.70;;;;;;;5.86;98.25;101214.05;217472;1262;139592;-68
2023/12/17 04:53:53;;;;;;;17.60;12.00;;;;;;;5.88;98.50;101223.56;219863;1261;139735;-68
2023/12/17 04:58:59;;;;;;;13.30;9.80;;;;;;;5.89;98.31;101219.38;219465;1261;140163;-68
2023/12/17 05:04:03;;;;;;;17.50;9.40;;;;;;;5.93;98.08;101216.03;219100;1262;139702;-68
2023/12/17 05:09:08;;;;;;;17.40;12.30;;;;;;;5.94;98.15;101204.75;218860;1260;139732;-67
2023/12/17 05:14:13;;;;;;;14.40;10.30;;;;;;;5.95;97.74;101203.23;217568;1261;140252;-67
2023/12/17 05:19:18;;;;;;;12.70;9.50;;;;;;;5.96;98.62;101208.09;217232;1260;140161;-65
2023/12/17 05:24:22;;;;;;;19.40;12.40;;;;;;;5.96;98.11;101207.20;217632;1260;139047;-66
2023/12/17 05:29:27;;;;;;;12.10;9.60;;;;;;;5.95;98.53;101206.23;218181;1262;140600;-68
2023/12/17 05:34:32;;;;;;;17.80;11.10;;;;;;;5.92;98.12;101204.74;217603;1261;140359;-68
2023/12/17 05:39:37;;;;;;;19.30;12.70;;;;;;;5.92;98.68;101203.20;217687;1264;140309;-69
2023/12/17 05:44:42;;;;;;;14.20;10.60;;;;;;;5.92;98.48;101206.05;217202;1260;142392;-68
2023/12/17 05:49:47;;;;;;;19.00;11.20;;;;;;;5.92;98.67;101215.90;217415;1260;140052;-68
2023/12/17 05:54:53;;;;;;;18.10;10.70;;;;;;;5.92;98.73;101219.84;218283;1262;139812;-67
2023/12/17 05:59:57;;;;;;;15.60;12.40;;;;;;;5.93;99.12;101209.21;217814;1263;140368;-67
2023/12/17 06:05:01;;;;;;;15.00;10.40;;;;;;;5.96;99.06;101194.13;218461;1261;139589;-68
2023/12/17 06:10:05;;;;;;;33.90;12.10;;;;;;;5.99;99.08;101193.09;218151;1260;140466;-67
2023/12/17 06:15:11;;;;;;;14.00;9.60;;;;;;;5.98;98.74;101203.98;218293;1260;140707;-68
2023/12/17 06:20:16;;;;;;;16.00;9.60;;;;;;;5.97;99.06;101198.30;217583;1260;139127;-68
2023/12/17 06:25:22;;;;;;;22.50;12.50;;;;;;;5.97;98.97;101195.61;218094;1263;139886;-69
2023/12/17 06:30:26;;;;;;;18.60;11.30;;;;;;;5.99;99.26;101194.55;218758;1261;139601;-67
2023/12/17 06:35:31;;;;;;;20.50;10.80;;;;;;;5.99;99.03;101196.60;218876;1263;139752;-68
2023/12/17 06:40:35;;;;;;;20.40;10.20;;;;;;;5.99;99.11;101193.23;219548;1260;139885;-67
2023/12/17 06:45:40;;;;;;;22.60;13.30;;;;;;;6.01;98.91;101190.09;219947;1261;141401;-68
2023/12/17 06:50:45;;;;;;;22.20;12.10;;;;;;;6.02;99.26;101177.77;220036;1264;140033;-68
2023/12/17 06:55:50;;;;;;;18.00;13.20;;;;;;;6.04;99.08;101177.73;219744;1262;140186;-67
2023/12/17 07:00:54;;;;;;;20.30;12.50;;;;;;;6.06;98.92;101198.09;218704;1260;140163;-69
2023/12/17 07:05:59;;;;;;;22.00;11.00;;;;;;;6.08;99.40;101202.88;218529;1260;141131;-69
2023/12/17 07:11:04;;;;;;;16.40;10.60;;;;;;;6.10;99.38;101219.55;217284;1264;140217;-69
2023/12/17 07:16:20;;;;;;;23.10;12.40;;;;;;;6.11;99.22;101227.22;217775;1263;141042;-69
2023/12/17 07:21:25;;;;;;;17.20;12.00;;;;;;;6.09;99.07;101231.86;217241;1260;139363;-68
2023/12/17 07:26:30;;;;;;;18.00;10.90;;;;;;;6.08;99.13;101234.95;216891;1264;140579;-69
2023/12/17 07:31:35;;;;;;;16.00;11.70;;;;;;;6.10;99.55;101251.95;217760;1264;139709;-70
2023/12/17 07:36:40;;;;;;;18.20;12.20;;;;;;;6.13;99.58;101256.31;217164;1263;139242;-68
2023/12/17 07:41:44;;;;;;;24.90;11.20;;;;;;;6.15;99.67;101257.90;217712;1261;139935;-68
2023/12/17 07:46:49;;;;;;;17.60;11.70;;;;;;;6.15;99.48;101258.40;218253;1260;140541;-67
2023/12/17 07:51:54;;;;;;;16.50;10.70;;;;;;;6.14;99.61;101269.45;218254;1260;139672;-67
2023/12/17 07:56:59;;;;;;;21.30;11.90;;;;;;;6.15;99.94;101286.80;217223;1261;139580;-66
2023/12/17 08:02:04;;;;;;;17.20;11.00;;;;;;;6.15;99.63;101299.11;218969;1261;139586;-68
2023/12/17 08:07:10;;;;;;;15.40;10.50;;;;;;;6.18;99.84;101305.89;216950;1265;139981;-68
2023/12/17 08:12:14;;;;;;;16.50;10.60;;;;;;;6.21;99.67;101308.17;217434;1263;142712;-68
2023/12/17 08:17:18;;;;;;;21.90;11.80;;;;;;;6.23;99.63;101319.50;217880;1263;140598;-68
2023/12/17 08:22:22;;;;;;;20.20;10.50;;;;;;;6.24;99.58;101324.48;219066;1261;140521;-68
2023/12/17 08:27:26;;;;;;;14.40;7.90;;;;;;;6.26;99.40;101330.98;218415;1263;142155;-69
2023/12/17 08:32:32;;;;;;;25.20;12.00;;;;;;;6.29;99.47;101328.98;219122;1264;139692;-69
2023/12/17 08:37:37;;;;;;;15.60;9.50;;;;;;;6.34;99.61;101329.02;217321;1262;139662;-69
2023/12/17 08:42:42;;;;;;;15.90;10.90;;;;;;;6.36;99.50;101333.88;217672;1263;139647;-68
2023/12/17 08:47:48;;;;;;;18.00;11.90;;;;;;;6.36;99.58;101335.31;217091;1262;140797;-72
2023/12/17 08:52:53;;;;;;;17.60;10.90;;;;;;;6.37;99.23;101338.35;218054;1262;153068;-68
2023/12/17 08:57:58;;;;;;;14.60;9.00;;;;;;;6.39;99.57;101329.39;218140;1264;139988;-71
2023/12/17 09:03:02;;;;;;;19.50;11.70;;;;;;;6.36;99.25;101328.42;217395;1265;139220;-69
2023/12/17 09:08:06;;;;;;;13.10;10.50;;;;;;;6.37;99.71;101331.64;218404;1261;140755;-71
2023/12/17 09:13:10;;;;;;;22.50;9.50;;;;;;;6.38;99.61;101334.55;217597;1260;142273;-67
2023/12/17 09:18:15;;;;;;;14.70;10.00;;;;;;;6.39;99.46;101340.97;218312;1265;140764;-68
2023/12/17 09:23:23;;;;;;;24.00;16.30;;;;;;;6.42;99.58;101339.91;217632;1265;140937;-67
2023/12/17 09:28:27;;;;;;;20.00;12.00;;;;;;;6.46;99.83;101328.42;217816;1261;141063;-69
2023/12/17 09:33:34;;;;;;;16.40;9.10;;;;;;;6.47;99.80;101325.46;217478;1260;139805;-69
2023/12/17 09:38:42;;;;;;;19.40;11.30;;;;;;;6.49;99.83;101318.91;218023;1263;139535;-68
2023/12/17 09:43:47;;;;;;;20.20;10.40;;;;;;;6.46;99.69;101316.33;217686;1263;142139;-68
2023/12/17 09:48:52;;;;;;;28.10;15.70;;;;;;;6.43;99.68;101304.31;217583;1265;139616;-70
2023/12/17 09:53:58;;;;;;;20.80;12.50;;;;;;;6.42;99.92;101304.10;218064;1264;139386;-69
2023/12/17 09:59:01;;;;;;;17.00;11.70;;;;;;;6.42;99.95;101308.83;217170;1263;139587;-67
2023/12/17 10:04:07;;;;;;;20.90;12.60;;;;;;;6.40;99.93;101308.25;218125;1260;139476;-68
2023/12/17 10:09:15;;;;;;;19.60;11.60;;;;;;;6.39;99.98;101306.90;217771;1263;139424;-66
2023/12/17 10:14:24;;;;;;;14.50;10.60;;;;;;;6.42;100.00;101308.69;218155;1260;140314;-66
2023/12/17 10:19:29;;;;;;;21.00;12.30;;;;;;;6.45;100.00;101306.60;218105;1260;139875;-68
2023/12/17 10:24:37;;;;;;;14.70;12.00;;;;;;;6.45;100.00;101314.41;219728;1256;140628;-68
2023/12/17 10:29:44;;;;;;;19.90;11.30;;;;;;;6.45;100.00;101298.45;218628;1257;140520;-67
2023/12/17 10:34:52;;;;;;;15.60;11.60;;;;;;;6.46;99.99;101287.95;219563;1260;140267;-68
2023/12/17 10:39:59;;;;;;;16.70;11.00;;;;;;;6.48;100.00;101290.37;218450;1259;140802;-69
2023/12/17 10:45:05;;;;;;;15.40;9.90;;;;;;;6.51;100.00;101281.45;218934;1260;140414;-68
2023/12/17 10:50:11;;;;;;;13.20;9.70;;;;;;;6.53;100.00;101277.80;219378;1257;139806;-65
2023/12/17 10:55:18;;;;;;;17.50;12.90;;;;;;;6.55;100.00;101266.23;219531;1257;141834;-67
2023/12/17 11:00:25;;;;;;;16.70;13.20;;;;;;;6.57;100.00;101262.20;217766;1260;140136;-68
2023/12/17 11:05:29;;;;;;;;;;;;;;;6.59;100.00;101266.86;219508;1256;140446;-70
2023/12/17 11:10:38;;;;;;;21.30;12.90;;;;;;;6.58;100.00;101275.70;220761;1260;126760;-69
2023/12/17 11:15:42;;;;;;;18.30;11.70;;;;;;;6.60;100.00;101273.29;220347;1260;140834;-68
2023/12/17 11:20:48;;;;;;;16.60;12.50;;;;;;;6.64;100.00;101266.35;220496;1259;139954;-69
2023/12/17 11:25:55;;;;;;;14.00;9.80;;;;;;;6.69;100.00;101269.15;220385;1260;140447;-68
2023/12/17 11:31:02;;;;;;;16.80;12.70;;;;;;;6.68;100.00;101265.21;220353;1257;141451;-69
2023/12/17 11:36:08;;;;;;;17.00;12.50;;;;;;;6.67;100.00;101251.38;220225;1256;140276;-69
2023/12/17 11:46:55;;;;;;;26.50;17.30;;;;;;;6.68;100.00;101263.58;216127;1289;657385;-69
2023/12/17 11:52:13;;;;;;;19.60;12.80;;;;;;;6.65;99.97;101268.67;217104;1269;139649;-69
2023/12/17 11:57:21;;;;;;;15.30;12.40;;;;;;;6.62;100.00;101279.80;216792;1266;881788;-68
2023/12/17 12:02:28;;;;;;;19.30;13.00;;;;;;;6.57;99.99;101271.30;217244;1269;139172;-69
2023/12/17 12:07:34;;;;;;;19.20;15.90;;;;;;;6.55;100.00;101269.82;217361;1266;141319;-68
2023/12/17 12:12:40;;;;;;;15.60;11.00;;;;;;;6.55;100.00;101262.57;217504;1259;140535;-68
2023/12/17 12:17:46;;;;;;;16.70;12.80;;;;;;;6.55;100.00;101261.35;219542;1259;140839;-69
2023/12/17 12:22:52;;;;;;;22.10;14.80;;;;;;;6.57;100.00;101261.96;218701;1259;140295;-68
2023/12/17 12:27:57;;;;;;;22.10;14.00;;;;;;;6.61;100.00;101261.39;218999;1258;139846;-69
2023/12/17 12:33:14;;;;;;;19.80;14.30;;;;;;;6.65;100.00;101264.33;220256;1258;140466;-69
2023/12/17 12:38:25;;;;;;;24.40;14.00;;;;;;;6.66;99.99;101264.76;220113;1259;139997;-69
2023/12/17 12:43:30;;;;;;;20.20;13.60;;;;;;;6.67;100.00;101257.33;219159;1259;139780;-69
2023/12/17 12:48:36;;;;;;;23.10;14.00;;;;;;;6.67;100.00;101245.88;219521;1260;139743;-69
2023/12/17 12:53:40;;;;;;;20.70;13.50;;;;;;;6.67;100.00;101244.98;218888;1259;140235;-68
2023/12/17 12:58:44;;;;;;;24.20;15.50;;;;;;;6.69;100.00;101246.03;218988;1260;140203;-69
2023/12/17 13:03:49;;;;;;;26.70;16.20;;;;;;;6.70;99.98;101246.59;217687;1259;139493;-68
2023/12/17 13:08:54;;;;;;;23.00;15.70;;;;;;;6.70;99.99;101248.50;218416;1259;139960;-68
2023/12/17 13:13:59;;;;;;;23.10;16.20;;;;;;;6.69;100.00;101245.27;218221;1259;141261;-69
2023/12/17 13:19:04;;;;;;;24.70;16.80;;;;;;;6.67;100.00;101232.72;217265;1260;140290;-68
2023/12/17 13:24:18;;;;;;;22.40;14.40;;;;;;;6.64;100.00;101213.45;217605;1259;139547;-68
2023/12/17 13:29:22;;;;;;;18.10;14.30;;;;;;;6.60;100.00;101211.68;217569;1260;140148;-68
2023/12/17 13:34:26;;;;;;;22.00;15.80;;;;;;;6.59;100.00;101230.30;217032;1260;140151;-67
2023/12/17 13:39:30;;;;;;;19.10;14.10;;;;;;;6.55;100.00;101241.17;217315;1260;139876;-67
2023/12/17 13:44:35;;;;;;;18.30;14.50;;;;;;;6.51;100.00;101241.85;218410;1259;139360;-68
2023/12/17 13:49:41;;;;;;;20.40;15.60;;;;;;;6.48;100.00;101232.65;217365;1260;140254;-68
2023/12/17 13:54:46;;;;;;;19.20;12.90;;;;;;;6.42;100.00;101221.98;217296;1260;140684;-68
2023/12/17 13:59:50;;;;;;;23.60;16.50;;;;;;;6.40;100.00;101232.30;219263;1259;140844;-69
2023/12/17 14:04:56;;;;;;;22.90;16.00;;;;;;;6.38;100.00;101235.66;217210;1259;139365;-68
2023/12/17 14:10:01;;;;;;;20.20;14.10;;;;;;;6.37;100.00;101243.93;218893;1259;141864;-69
2023/12/17 14:15:08;;;;;;;27.00;18.20;;;;;;;6.36;100.00;101241.59;219000;1260;142020;-69
2023/12/17 14:20:15;;;;;;;21.90;15.00;;;;;;;6.35;100.00;101238.88;219522;1263;140221;-68
2023/12/17 14:25:27;;;;;;;18.60;12.80;;;;;;;6.34;100.00;101240.66;220028;1260;139774;-69
2023/12/17 14:30:35;;;;;;;21.60;13.60;;;;;;;6.35;100.00;101239.41;220058;1260;140296;-69
2023/12/17 14:35:41;;;;;;;19.10;13.40;;;;;;;6.35;100.00;101238.48;218957;1260;139832;-69
2023/12/17 14:40:47;;;;;;;22.10;13.90;;;;;;;6.35;100.00;101236.52;218250;1260;140853;-68
2023/12/17 14:45:51;;;;;;;23.40;16.30;;;;;;;6.35;100.00;101219.04;218783;1259;140156;-68
2023/12/17 14:50:55;;;;;;;22.00;15.40;;;;;;;6.36;100.00;101201.33;218280;1260;139677;-68
2023/12/17 14:56:01;;;;;;;23.70;15.30;;;;;;;6.35;100.00;101204.94;217980;1260;139569;-68
2023/12/17 15:01:10;;;;;;;;;;;;;;;6.34;100.00;101211.10;217656;1262;140589;-68
2023/12/17 15:06:24;;;;;;;21.70;13.20;;;;;;;6.30;100.00;101216.47;219356;1259;126074;-68
2023/12/17 15:11:30;;;;;;;20.70;13.90;;;;;;;6.28;100.00;101208.04;217466;1260;140866;-69
2023/12/17 15:16:35;;;;;;;18.60;12.40;;;;;;;6.27;100.00;101218.23;217607;1259;139490;-68
2023/12/17 15:21:40;;;;;;;23.80;14.70;;;;;;;6.23;100.00;101232.38;217454;1260;139887;-68
2023/12/17 15:26:49;;;;;;;26.30;15.30;;;;;;;6.20;100.00;101230.63;217870;1260;140556;-68
2023/12/17 15:31:53;;;;;;;23.20;15.60;;;;;;;6.17;100.00;101208.36;218289;1259;140076;-69
2023/12/17 15:36:58;;;;;;;22.50;14.40;;;;;;;6.18;100.00;101193.63;217732;1260;139916;-68
2023/12/17 15:42:03;;;;;;;27.30;14.70;;;;;;;6.19;100.00;101200.24;217555;1259;140906;-68
2023/12/17 15:47:08;;;;;;;19.20;12.90;;;;;;;6.21;100.00;101199.31;218548;1260;140360;-69
2023/12/17 15:52:12;;;;;;;16.90;11.40;;;;;;;6.18;100.00;101208.02;218557;1259;139571;-68
2023/12/17 15:57:17;;;;;;;22.90;12.70;;;;;;;6.20;100.00;101208.25;219018;1259;140557;-68
2023/12/17 16:02:21;;;;;;;23.40;14.30;;;;;;;6.20;100.00;101197.23;220063;1259;141419;-69
2023/12/17 16:07:26;;;;;;;18.50;13.10;;;;;;;6.23;100.00;101201.52;219489;1261;141113;-69
2023/12/17 16:12:30;;;;;;;19.90;10.90;;;;;;;6.26;100.00;101218.27;216804;1261;139927;-68
2023/12/17 16:17:35;;;;;;;15.40;9.60;;;;;;;6.25;100.00;101218.66;219125;1259;140819;-69
2023/12/17 16:22:42;;;;;;;17.40;11.40;;;;;;;6.23;100.00;101219.13;218547;1259;140304;-68
2023/12/17 16:27:48;;;;;;;;;;;;;;;6.22;100.00;101215.56;220072;1259;140207;-69
2023/12/17 16:32:53;;;;;;;14.60;10.40;;;;;;;6.20;100.00;101218.24;218643;1260;125510;-67
2023/12/17 16:37:58;;;;;;;14.50;9.60;;;;;;;6.21;99.90;101211.27;218990;1259;141463;-68
2023/12/17 16:43:04;;;;;;;15.50;9.40;;;;;;;6.20;99.80;101193.23;219272;1260;139583;-68
2023/12/17 16:48:09;;;;;;;16.80;11.00;;;;;;;6.21;99.81;101193.76;217449;1260;139982;-68
2023/12/17 16:53:13;;;;;;;17.10;10.80;;;;;;;6.23;99.98;101205.06;218388;1260;140287;-68
2023/12/17 16:58:17;;;;;;;14.10;10.10;;;;;;;6.20;99.74;101216.30;217868;1259;140232;-68
2023/12/17 17:03:22;;;;;;;17.40;10.30;;;;;;;6.18;99.66;101215.86;217080;1260;139688;-68
2023/12/17 17:08:25;;;;;;;15.60;11.20;;;;;;;6.15;99.71;101205.73;217998;1260;140824;-68
2023/12/17 17:13:30;;;;;;;17.70;10.30;;;;;;;6.15;99.80;101207.73;217978;1259;139489;-68
2023/12/17 17:18:34;;;;;;;14.20;9.00;;;;;;;6.18;99.73;101210.21;217196;1259;139470;-68
2023/12/17 17:23:37;;;;;;;13.70;10.40;;;;;;;6.15;99.20;101198.33;217097;1259;140986;-67
2023/12/17 17:28:44;;;;;;;16.70;11.20;;;;;;;6.12;99.41;101186.70;217944;1261;139422;-68
2023/12/17 17:33:49;;;;;;;15.00;9.90;;;;;;;6.12;99.30;101167.23;217874;1257;139329;-67
2023/12/17 17:39:00;;;;;;;15.50;11.20;;;;;;;6.12;99.19;101166.61;217391;1260;140469;-68
2023/12/17 17:44:04;;;;;;;16.10;10.00;;;;;;;6.11;99.07;101177.31;218083;1257;151589;-68
2023/12/17 17:49:08;;;;;;;14.60;10.20;;;;;;;6.10;99.42;101182.52;217877;1257;142024;-68
2023/12/17 17:54:13;;;;;;;14.80;10.50;;;;;;;6.09;99.09;101170.64;218205;1261;140608;-67
2023/12/17 17:59:23;;;;;;;;;;;;;;;6.07;98.64;101160.62;219763;1257;140082;-68
2023/12/17 18:04:27;;;;;;;17.60;10.60;;;;;;;6.03;99.01;101161.98;219239;1257;126141;-68
2023/12/17 18:09:32;;;;;;;17.70;10.90;;;;;;;6.03;98.92;101168.11;218093;1260;139554;-68
2023/12/17 18:14:36;;;;;;;17.60;12.60;;;;;;;6.01;98.84;101167.66;218510;1257;139480;-69
2023/12/17 18:19:44;;;;;;;15.20;10.60;;;;;;;5.99;98.74;101178.67;220241;1258;141578;-69
2023/12/17 18:24:48;;;;;;;15.20;11.30;;;;;;;5.98;98.67;101181.42;219430;1259;140562;-68
2023/12/17 18:29:51;;;;;;;17.50;11.50;;;;;;;5.97;98.58;101179.00;219076;1257;140718;-67
2023/12/17 18:34:55;;;;;;;14.30;10.00;;;;;;;5.96;98.61;101171.33;218571;1257;139682;-68
2023/12/17 18:39:59;;;;;;;15.00;10.50;;;;;;;5.94;98.20;101160.45;217551;1257;139850;-67
2023/12/17 18:45:04;;;;;;;12.60;8.30;;;;;;;5.91;98.50;101134.33;219220;1257;139791;-68
2023/12/17 18:50:10;;;;;;;10.60;8.90;;;;;;;5.89;97.93;101105.44;218249;1258;139316;-67
2023/12/17 18:55:14;;;;;;;12.00;9.90;;;;;;;5.85;97.91;101112.61;218622;1257;139593;-67
2023/12/17 19:00:18;;;;;;;11.80;8.90;;;;;;;5.79;97.47;101124.14;218066;1258;139736;-68
2023/12/17 19:05:22;;;;;;;12.70;8.80;;;;;;;5.72;97.41;101106.64;217490;1261;139508;-67
2023/12/17 19:10:26;;;;;;;11.00;8.90;;;;;;;5.65;97.18;101113.89;218006;1258;139940;-67
2023/12/17 19:15:30;;;;;;;12.30;9.20;;;;;;;5.58;97.66;101110.23;218325;1259;139282;-68
2023/12/17 19:20:35;;;;;;;13.00;7.40;;;;;;;5.51;97.36;101110.34;217957;1258;139553;-67
2023/12/17 19:25:39;;;;;;;11.20;8.60;;;;;;;5.43;96.83;101107.89;217675;1258;140189;-68
2023/12/17 19:30:43;;;;;;;8.00;7.00;;;;;;;5.34;96.97;101086.81;218466;1260;139475;-67
2023/12/17 19:35:47;;;;;;;13.90;8.10;;;;;;;5.26;97.08;101078.78;217735;1260;139861;-67
2023/12/17 19:40:51;;;;;;;14.50;9.10;;;;;;;5.19;96.74;101084.69;217449;1257;140752;-68
2023/12/17 19:45:55;;;;;;;9.60;6.90;;;;;;;5.14;96.84;101080.46;218626;1261;139865;-67
2023/12/17 19:50:59;;;;;;;10.00;7.80;;;;;;;5.09;96.80;101066.29;218920;1260;140456;-67
2023/12/17 19:56:03;;;;;;;16.10;8.80;;;;;;;5.05;96.95;101062.98;218692;1258;139542;-67
2023/12/17 20:01:11;;;;;;;13.90;7.50;;;;;;;5.02;96.72;101062.12;218244;1258;140094;-67
2023/12/17 20:06:15;;;;;;;10.60;7.00;;;;;;;4.99;97.30;101062.27;220205;1258;140327;-67
2023/12/17 20:11:20;;;;;;;10.60;6.90;;;;;;;4.99;96.96;101061.16;220254;1257;139566;-67
2023/12/17 20:16:27;;;;;;;9.60;6.90;;;;;;;4.99;96.89;101074.54;220231;1259;139954;-68
2023/12/17 20:21:32;;;;;;;9.90;7.00;;;;;;;4.99;96.37;101071.64;219285;1260;140466;-67
2023/12/17 20:26:37;;;;;;;15.20;8.80;;;;;;;4.99;96.75;101058.06;218162;1260;139350;-67
2023/12/17 20:31:44;;;;;;;12.40;8.00;;;;;;;4.98;96.87;101057.23;217475;1258;139655;-67
2023/12/17 20:36:49;;;;;;;11.60;6.80;;;;;;;4.96;96.76;101055.75;218735;1259;139579;-67
2023/12/17 20:41:54;;;;;;;13.00;7.20;;;;;;;4.93;96.53;101051.11;218293;1261;140005;-67
2023/12/17 20:46:57;;;;;;;12.80;6.90;;;;;;;4.90;96.53;101051.06;218042;1257;139988;-67
2023/12/17 20:52:02;;;;;;;10.70;7.40;;;;;;;4.85;96.51;101042.00;217567;1260;141502;-66
2023/12/17 20:57:06;;;;;;;10.90;7.10;;;;;;;4.81;96.27;101031.20;218594;1261;140199;-67
2023/12/17 21:02:13;;;;;;;11.80;7.90;;;;;;;4.78;96.03;101018.98;217494;1257;141683;-67
2023/12/17 21:07:17;;;;;;;11.50;7.70;;;;;;;4.76;96.56;101025.88;217753;1260;139683;-67
2023/12/17 21:12:21;;;;;;;14.50;7.60;;;;;;;4.76;96.45;101025.68;218371;1260;139490;-67
2023/12/17 21:17:25;;;;;;;14.70;9.20;;;;;;;4.75;96.21;101007.09;217934;1258;140239;-66
2023/12/17 21:23:01;;;;;;;19.10;11.20;;;;;;;4.75;96.32;100994.51;218383;1260;140681;-66
2023/12/17 21:28:13;;;;;;;13.90;8.20;;;;;;;4.76;96.58;100978.86;218449;1260;140482;-69
2023/12/17 21:33:20;;;;;;;18.10;8.60;;;;;;;4.80;96.74;100978.26;217875;1261;140945;-70
2023/12/17 21:38:30;;;;;;;11.30;7.70;;;;;;;4.85;96.63;100972.91;217539;1260;139739;-71
2023/12/17 21:43:36;;;;;;;11.10;7.30;;;;;;;4.88;96.72;100975.74;217799;1257;139385;-68
2023/12/17 21:48:43;;;;;;;19.70;9.00;;;;;;;4.91;96.25;100986.69;218703;1260;140226;-69
2023/12/17 21:53:49;;;;;;;14.80;8.50;;;;;;;4.93;96.32;100974.30;218259;1262;140635;-66
2023/12/17 21:58:54;;;;;;;16.20;9.00;;;;;;;5.01;96.55;100980.07;219161;1260;140229;-68
2023/12/17 22:03:59;;;;;;;11.60;7.30;;;;;;;5.11;96.37;100976.98;220114;1258;141418;-70
2023/12/17 22:09:04;;;;;;;12.80;7.20;;;;;;;5.18;96.05;100971.63;218246;1260;139582;-71
2023/12/17 22:15:06;;;;;;;14.60;9.20;;;;;;;5.24;95.55;100968.64;217426;1260;139913;-71
2023/12/17 22:20:13;;;;;;;12.10;7.00;;;;;;;5.29;95.93;100964.20;218466;1257;139561;-72
2023/12/17 22:25:20;;;;;;;12.20;8.70;;;;;;;5.32;95.46;100962.28;217372;1261;139791;-68
2023/12/17 22:30:25;;;;;;;10.80;6.60;;;;;;;5.35;95.56;100961.25;218189;1259;139655;-68
2023/12/17 22:35:30;;;;;;;14.00;8.10;;;;;;;5.36;95.00;100953.17;217851;1261;140414;-67
2023/12/17 22:40:35;;;;;;;15.50;6.50;;;;;;;5.35;94.89;100932.63;218000;1257;139999;-65
2023/12/17 22:45:40;;;;;;;9.10;6.80;;;;;;;5.35;94.95;100925.48;218118;1257;139918;-67
2023/12/17 22:50:46;;;;;;;11.40;7.40;;;;;;;5.35;95.03;100922.09;218403;1260;139278;-65
2023/12/17 22:55:50;;;;;;;7.60;5.30;;;;;;;5.37;94.75;100928.06;217884;1258;139776;-68
2023/12/17 23:00:54;;;;;;;8.20;5.10;;;;;;;5.36;94.68;100925.85;217665;1261;139682;-67
2023/12/17 23:05:59;;;;;;;9.70;5.90;;;;;;;5.35;94.88;100916.59;218064;1262;139891;-67
2023/12/17 23:11:04;;;;;;;9.60;7.10;;;;;;;5.34;94.29;100901.77;218828;1258;139467;-67
2023/12/17 23:16:09;;;;;;;9.30;5.20;;;;;;;5.33;94.17;100899.42;218328;1260;139491;-66
2023/12/17 23:21:15;;;;;;;10.20;6.20;;;;;;;5.34;94.19;100891.75;217477;1262;139739;-67
2023/12/17 23:26:21;;;;;;;9.60;5.40;;;;;;;5.35;94.13;100896.37;218219;1260;142103;-67
2023/12/17 23:31:29;;;;;;;8.60;6.20;;;;;;;5.35;93.84;100893.89;217926;1260;139557;-67
2023/12/17 23:36:34;;;;;;;11.00;6.80;;;;;;;5.38;93.89;100895.96;218055;1261;139779;-67
2023/12/17 23:41:40;;;;;;;12.60;6.20;;;;;;;5.39;93.79;100899.89;218917;1258;140771;-67
2023/12/17 23:46:45;;;;;;;10.80;7.30;;;;;;;5.39;93.32;100910.90;219099;1260;140296;-67
2023/12/17 23:51:50;;;;;;;12.80;6.70;;;;;;;5.41;93.08;100903.25;218629;1261;140062;-68